sensor_id;sensor_type;location;lat;lon;timestamp;pressure;altitude;pressure_sealevel;temperature;humidity
21504;BME280;10913;51.992;9.228;2022-08-19T00:00:34;99997.84;;;22.27;92.80
21504;BME280;10913;51.992;9.228;2022-08-19T00:02:59;100006.03;;;22.25;92.88
21504;BME280;10913;51.992;9.228;2022-08-19T00:05:25;100009.75;;;22.23;92.84
21504;BME280;10913;51.992;9.228;2022-08-19T00:07:50;100016.97;;;22.22;93.26
21504;BME280;10913;51.992;9.228;2022-08-19T00:10:18;100016.19;;;22.20;93.64
21504;BME280;10913;51.992;9.228;2022-08-19T00:12:44;100006.75;;;22.13;94.26
21504;BME280;10913;51.992;9.228;2022-08-19T00:15:13;100009.72;;;22.09;94.28
21504;BME280;10913;51.992;9.228;2022-08-19T00:17:40;100013.53;;;22.05;94.25
21504;BME280;10913;51.992;9.228;2022-08-19T00:20:07;100013.63;;;22.03;94.05
21504;BME280;10913;51.992;9.228;2022-08-19T00:22:32;100017.19;;;22.04;93.99
21504;BME280;10913;51.992;9.228;2022-08-19T00:24:58;100011.88;;;22.02;93.99
21504;BME280;10913;51.992;9.228;2022-08-19T00:27:24;100012.75;;;22.03;94.01
21504;BME280;10913;51.992;9.228;2022-08-19T00:29:49;100001.13;;;22.02;94.11
21504;BME280;10913;51.992;9.228;2022-08-19T00:32:16;99991.31;;;22.01;94.17
21504;BME280;10913;51.992;9.228;2022-08-19T00:34:41;99990.38;;;22.02;94.57
21504;BME280;10913;51.992;9.228;2022-08-19T00:37:07;99981.50;;;22.00;94.52
21504;BME280;10913;51.992;9.228;2022-08-19T00:39:33;99979.75;;;21.99;93.92
21504;BME280;10913;51.992;9.228;2022-08-19T00:41:58;99978.81;;;22.00;93.91
21504;BME280;10913;51.992;9.228;2022-08-19T00:44:26;99977.06;;;21.99;94.25
21504;BME280;10913;51.992;9.228;2022-08-19T00:46:54;99964.69;;;21.96;94.36
21504;BME280;10913;51.992;9.228;2022-08-19T00:49:26;99961.31;;;21.93;94.35
21504;BME280;10913;51.992;9.228;2022-08-19T00:51:57;99957.06;;;21.89;94.44
21504;BME280;10913;51.992;9.228;2022-08-19T00:54:24;99961.66;;;21.87;94.60
21504;BME280;10913;51.992;9.228;2022-08-19T00:56:50;99956.34;;;21.85;94.39
21504;BME280;10913;51.992;9.228;2022-08-19T00:59:17;99956.44;;;21.84;94.81
21504;BME280;10913;51.992;9.228;2022-08-19T01:01:44;99953.84;;;21.82;94.60
21504;BME280;10913;51.992;9.228;2022-08-19T01:04:11;99952.28;;;21.78;95.05
21504;BME280;10913;51.992;9.228;2022-08-19T01:06:37;99959.50;;;21.78;94.71
21504;BME280;10913;51.992;9.228;2022-08-19T01:09:04;99961.44;;;21.76;94.77
21504;BME280;10913;51.992;9.228;2022-08-19T01:11:32;99954.31;;;21.75;95.00
21504;BME280;10913;51.992;9.228;2022-08-19T01:13:58;99951.72;;;21.73;94.77
21504;BME280;10913;51.992;9.228;2022-08-19T01:16:26;99948.16;;;21.73;94.87
21504;BME280;10913;51.992;9.228;2022-08-19T01:18:53;99944.69;;;21.71;95.01
21504;BME280;10913;51.992;9.228;2022-08-19T01:21:37;99947.53;;;21.67;94.83
21504;BME280;10913;51.992;9.228;2022-08-19T01:24:04;99945.81;;;21.66;94.97
21504;BME280;10913;51.992;9.228;2022-08-19T01:26:30;99941.47;;;21.64;94.82
21504;BME280;10913;51.992;9.228;2022-08-19T01:28:58;99936.25;;;21.61;94.77
21504;BME280;10913;51.992;9.228;2022-08-19T01:31:27;99940.00;;;21.58;94.88
21504;BME280;10913;51.992;9.228;2022-08-19T01:33:57;99939.34;;;21.55;94.99
21504;BME280;10913;51.992;9.228;2022-08-19T01:36:36;99935.94;;;21.51;95.24
21504;BME280;10913;51.992;9.228;2022-08-19T01:39:06;99932.66;;;21.46;95.40
21504;BME280;10913;51.992;9.228;2022-08-19T01:41:33;99927.44;;;21.43;95.25
21504;BME280;10913;51.992;9.228;2022-08-19T01:43:59;99929.56;;;21.38;95.62
21504;BME280;10913;51.992;9.228;2022-08-19T01:46:26;99927.97;;;21.34;95.45
21504;BME280;10913;51.992;9.228;2022-08-19T01:48:51;99931.72;;;21.31;95.83
21504;BME280;10913;51.992;9.228;2022-08-19T01:51:16;99926.59;;;21.27;95.96
21504;BME280;10913;51.992;9.228;2022-08-19T01:53:42;99928.41;;;21.26;96.04
21504;BME280;10913;51.992;9.228;2022-08-19T01:56:07;99934.03;;;21.22;96.30
21504;BME280;10913;51.992;9.228;2022-08-19T01:58:38;99938.63;;;21.20;96.43
21504;BME280;10913;51.992;9.228;2022-08-19T02:01:05;99933.41;;;21.17;96.16
21504;BME280;10913;51.992;9.228;2022-08-19T02:03:31;99941.47;;;21.17;96.32
21504;BME280;10913;51.992;9.228;2022-08-19T02:05:58;99934.38;;;21.16;96.16
21504;BME280;10913;51.992;9.228;2022-08-19T02:08:32;99923.78;;;21.13;96.44
21504;BME280;10913;51.992;9.228;2022-08-19T02:10:57;99925.94;;;21.06;97.36
21504;BME280;10913;51.992;9.228;2022-08-19T02:13:24;99912.91;;;20.98;97.81
21504;BME280;10913;51.992;9.228;2022-08-19T02:15:50;99908.69;;;20.94;98.21
21504;BME280;10913;51.992;9.228;2022-08-19T02:18:16;99906.19;;;20.91;98.26
21504;BME280;10913;51.992;9.228;2022-08-19T02:20:43;99906.44;;;20.87;98.42
21504;BME280;10913;51.992;9.228;2022-08-19T02:23:10;99896.72;;;20.84;98.84
21504;BME280;10913;51.992;9.228;2022-08-19T02:25:35;99896.00;;;20.81;98.72
21504;BME280;10913;51.992;9.228;2022-08-19T02:28:01;99895.16;;;20.80;99.01
21504;BME280;10913;51.992;9.228;2022-08-19T02:30:27;99888.25;;;20.76;98.90
21504;BME280;10913;51.992;9.228;2022-08-19T02:32:52;99896.38;;;20.75;99.07
21504;BME280;10913;51.992;9.228;2022-08-19T02:35:18;99892.81;;;20.74;99.09
21504;BME280;10913;51.992;9.228;2022-08-19T02:37:44;99896.47;;;20.73;98.72
21504;BME280;10913;51.992;9.228;2022-08-19T02:40:30;99904.50;;;20.73;98.87
21504;BME280;10913;51.992;9.228;2022-08-19T02:42:59;99901.81;;;20.73;98.67
21504;BME280;10913;51.992;9.228;2022-08-19T02:45:24;99901.91;;;20.72;98.78
21504;BME280;10913;51.992;9.228;2022-08-19T02:47:50;99910.03;;;20.70;98.96
21504;BME280;10913;51.992;9.228;2022-08-19T02:50:15;99906.56;;;20.68;98.88
21504;BME280;10913;51.992;9.228;2022-08-19T02:52:41;99901.19;;;20.68;98.91
21504;BME280;10913;51.992;9.228;2022-08-19T02:55:06;99903.09;;;20.66;98.87
21504;BME280;10913;51.992;9.228;2022-08-19T02:57:32;99898.69;;;20.65;98.84
21504;BME280;10913;51.992;9.228;2022-08-19T02:59:58;99899.63;;;20.64;99.17
21504;BME280;10913;51.992;9.228;2022-08-19T03:02:24;99898.84;;;20.62;99.10
21504;BME280;10913;51.992;9.228;2022-08-19T03:04:49;99903.44;;;20.60;98.92
21504;BME280;10913;51.992;9.228;2022-08-19T03:07:17;99907.06;;;20.59;98.86
21504;BME280;10913;51.992;9.228;2022-08-19T03:09:43;99913.41;;;20.58;98.58
21504;BME280;10913;51.992;9.228;2022-08-19T03:12:09;99920.47;;;20.59;98.85
21504;BME280;10913;51.992;9.228;2022-08-19T03:14:34;99926.81;;;20.58;98.37
21504;BME280;10913;51.992;9.228;2022-08-19T03:17:01;99917.03;;;20.57;98.10
21504;BME280;10913;51.992;9.228;2022-08-19T03:19:28;99917.03;;;20.57;98.15
21504;BME280;10913;51.992;9.228;2022-08-19T03:21:53;99918.94;;;20.55;98.18
21504;BME280;10913;51.992;9.228;2022-08-19T03:24:20;99912.94;;;20.50;98.25
21504;BME280;10913;51.992;9.228;2022-08-19T03:26:48;99910.34;;;20.48;98.30
21504;BME280;10913;51.992;9.228;2022-08-19T03:29:15;99916.72;;;20.46;98.05
21504;BME280;10913;51.992;9.228;2022-08-19T03:31:42;99923.03;;;20.45;98.01
21504;BME280;10913;51.992;9.228;2022-08-19T03:34:10;99922.25;;;20.43;97.90
21504;BME280;10913;51.992;9.228;2022-08-19T03:36:37;99922.34;;;20.41;98.01
21504;BME280;10913;51.992;9.228;2022-08-19T03:39:04;99916.19;;;20.39;97.72
21504;BME280;10913;51.992;9.228;2022-08-19T03:41:32;99918.09;;;20.37;97.67
21504;BME280;10913;51.992;9.228;2022-08-19T03:43:58;99925.34;;;20.35;97.70
21504;BME280;10913;51.992;9.228;2022-08-19T03:46:27;99935.34;;;20.32;97.81
21504;BME280;10913;51.992;9.228;2022-08-19T03:48:54;99931.94;;;20.28;97.93
21504;BME280;10913;51.992;9.228;2022-08-19T03:51:28;99933.06;;;20.24;97.99
21504;BME280;10913;51.992;9.228;2022-08-19T03:53:57;99944.22;;;20.16;98.17
21504;BME280;10913;51.992;9.228;2022-08-19T03:56:23;99941.84;;;20.10;98.52
21504;BME280;10913;51.992;9.228;2022-08-19T03:58:51;99945.59;;;20.06;98.94
21504;BME280;10913;51.992;9.228;2022-08-19T04:01:20;99953.00;;;20.01;99.07
21504;BME280;10913;51.992;9.228;2022-08-19T04:03:46;99954.22;;;19.95;99.31
21504;BME280;10913;51.992;9.228;2022-08-19T04:06:13;99949.94;;;19.91;99.36
21504;BME280;10913;51.992;9.228;2022-08-19T04:08:40;99954.53;;;19.89;99.36
21504;BME280;10913;51.992;9.228;2022-08-19T04:11:07;99951.03;;;19.87;99.05
21504;BME280;10913;51.992;9.228;2022-08-19T04:13:33;99958.28;;;19.85;98.78
21504;BME280;10913;51.992;9.228;2022-08-19T04:15:59;99962.06;;;19.81;99.10
21504;BME280;10913;51.992;9.228;2022-08-19T04:18:24;99961.19;;;19.81;98.87
21504;BME280;10913;51.992;9.228;2022-08-19T04:20:51;99959.63;;;19.77;98.88
21504;BME280;10913;51.992;9.228;2022-08-19T04:23:17;99954.50;;;19.72;98.91
21504;BME280;10913;51.992;9.228;2022-08-19T04:25:44;99953.63;;;19.72;99.28
21504;BME280;10913;51.992;9.228;2022-08-19T04:28:11;99957.41;;;19.68;99.10
21504;BME280;10913;51.992;9.228;2022-08-19T04:30:46;99957.53;;;19.65;99.24
21504;BME280;10913;51.992;9.228;2022-08-19T04:33:14;99966.53;;;19.64;98.66
21504;BME280;10913;51.992;9.228;2022-08-19T04:35:44;99962.03;;;19.64;98.42
21504;BME280;10913;51.992;9.228;2022-08-19T04:38:10;99961.09;;;19.65;98.26
21504;BME280;10913;51.992;9.228;2022-08-19T04:40:45;99963.84;;;19.64;98.89
21504;BME280;10913;51.992;9.228;2022-08-19T04:43:29;99963.84;;;19.64;98.48
21504;BME280;10913;51.992;9.228;2022-08-19T04:45:55;99965.72;;;19.61;98.13
21504;BME280;10913;51.992;9.228;2022-08-19T04:48:21;99971.09;;;19.61;98.23
21504;BME280;10913;51.992;9.228;2022-08-19T04:50:56;99964.00;;;19.60;98.26
21504;BME280;10913;51.992;9.228;2022-08-19T04:53:28;99965.97;;;19.57;98.39
21504;BME280;10913;51.992;9.228;2022-08-19T04:55:56;99979.38;;;19.57;98.37
21504;BME280;10913;51.992;9.228;2022-08-19T04:58:22;99966.94;;;19.56;98.60
21504;BME280;10913;51.992;9.228;2022-08-19T05:00:48;99970.63;;;19.53;98.37
21504;BME280;10913;51.992;9.228;2022-08-19T05:03:13;99956.34;;;19.53;98.38
21504;BME280;10913;51.992;9.228;2022-08-19T05:05:41;99961.72;;;19.53;98.37
21504;BME280;10913;51.992;9.228;2022-08-19T05:08:07;99959.09;;;19.51;98.56
21504;BME280;10913;51.992;9.228;2022-08-19T05:10:37;99962.72;;;19.50;98.50
21504;BME280;10913;51.992;9.228;2022-08-19T05:13:04;99959.09;;;19.51;98.43
21504;BME280;10913;51.992;9.228;2022-08-19T05:15:29;99961.72;;;19.53;98.15
21504;BME280;10913;51.992;9.228;2022-08-19T05:17:55;99967.13;;;19.51;98.76
21504;BME280;10913;51.992;9.228;2022-08-19T05:20:46;99971.56;;;19.52;98.90
21504;BME280;10913;51.992;9.228;2022-08-19T05:23:30;99970.63;;;19.53;98.95
21504;BME280;10913;51.992;9.228;2022-08-19T05:25:55;99973.16;;;19.56;98.84
21504;BME280;10913;51.992;9.228;2022-08-19T05:28:21;99968.50;;;19.60;98.93
21504;BME280;10913;51.992;9.228;2022-08-19T05:30:47;99974.50;;;19.65;99.06
21504;BME280;10913;51.992;9.228;2022-08-19T05:33:14;99962.63;;;19.71;98.80
21504;BME280;10913;51.992;9.228;2022-08-19T05:35:39;99964.13;;;19.76;99.20
21504;BME280;10913;51.992;9.228;2022-08-19T05:38:06;99961.19;;;19.81;99.16
21504;BME280;10913;51.992;9.228;2022-08-19T05:40:37;99959.00;;;19.89;99.18
21504;BME280;10913;51.992;9.228;2022-08-19T05:43:05;99955.09;;;19.96;99.07
21504;BME280;10913;51.992;9.228;2022-08-19T05:45:31;99953.81;;;20.03;98.95
21504;BME280;10913;51.992;9.228;2022-08-19T05:47:56;99959.66;;;20.11;98.92
21504;BME280;10913;51.992;9.228;2022-08-19T05:50:24;99957.44;;;20.19;98.53
21504;BME280;10913;51.992;9.228;2022-08-19T05:52:51;99956.97;;;20.28;97.89
21504;BME280;10913;51.992;9.228;2022-08-19T05:55:17;99957.41;;;20.38;97.26
21504;BME280;10913;51.992;9.228;2022-08-19T05:57:45;99957.63;;;20.51;96.80
21504;BME280;10913;51.992;9.228;2022-08-19T06:00:11;99952.59;;;20.60;95.77
21504;BME280;10913;51.992;9.228;2022-08-19T06:02:37;99967.22;;;20.72;95.68
21504;BME280;10913;51.992;9.228;2022-08-19T06:05:04;99963.06;;;20.82;94.96
21504;BME280;10913;51.992;9.228;2022-08-19T06:07:32;99953.75;;;20.89;94.81
21504;BME280;10913;51.992;9.228;2022-08-19T06:09:58;99950.63;;;20.97;94.31
21504;BME280;10913;51.992;9.228;2022-08-19T06:12:23;99947.50;;;21.05;94.20
21504;BME280;10913;51.992;9.228;2022-08-19T06:14:54;99946.41;;;21.09;93.34
21504;BME280;10913;51.992;9.228;2022-08-19T06:17:20;99961.31;;;21.14;93.11
21504;BME280;10913;51.992;9.228;2022-08-19T06:19:47;99960.91;;;21.22;92.53
21504;BME280;10913;51.992;9.228;2022-08-19T06:22:15;99964.81;;;21.32;91.58
21504;BME280;10913;51.992;9.228;2022-08-19T06:24:41;99963.34;;;21.42;90.97
21504;BME280;10913;51.992;9.228;2022-08-19T06:27:06;99951.91;;;21.54;90.27
21504;BME280;10913;51.992;9.228;2022-08-19T06:29:32;99956.72;;;21.63;89.44
21504;BME280;10913;51.992;9.228;2022-08-19T06:31:59;99949.09;;;21.72;89.42
21504;BME280;10913;51.992;9.228;2022-08-19T06:34:27;99958.66;;;21.77;89.19
21504;BME280;10913;51.992;9.228;2022-08-19T06:36:53;99955.66;;;21.82;88.94
21504;BME280;10913;51.992;9.228;2022-08-19T06:39:25;99966.25;;;21.85;88.80
21504;BME280;10913;51.992;9.228;2022-08-19T06:41:53;99968.75;;;21.88;88.43
21504;BME280;10913;51.992;9.228;2022-08-19T06:44:20;99969.72;;;21.87;87.96
21504;BME280;10913;51.992;9.228;2022-08-19T06:46:46;99971.53;;;21.86;88.53
21504;BME280;10913;51.992;9.228;2022-08-19T06:49:12;99969.13;;;21.82;88.53
21504;BME280;10913;51.992;9.228;2022-08-19T06:51:44;99975.44;;;21.81;88.40
21504;BME280;10913;51.992;9.228;2022-08-19T06:54:13;99986.19;;;21.81;88.22
21504;BME280;10913;51.992;9.228;2022-08-19T06:56:39;99983.44;;;21.82;88.76
21504;BME280;10913;51.992;9.228;2022-08-19T06:59:07;99983.94;;;21.89;89.14
21504;BME280;10913;51.992;9.228;2022-08-19T07:01:37;99980.13;;;21.93;88.53
21504;BME280;10913;51.992;9.228;2022-08-19T07:04:06;99979.75;;;21.99;88.44
21504;BME280;10913;51.992;9.228;2022-08-19T07:06:32;99997.47;;;22.03;88.37
21504;BME280;10913;51.992;9.228;2022-08-19T07:08:57;99993.66;;;22.07;88.02
21504;BME280;10913;51.992;9.228;2022-08-19T07:11:23;100000.59;;;22.11;87.79
21504;BME280;10913;51.992;9.228;2022-08-19T07:13:49;99999.38;;;22.17;87.64
21504;BME280;10913;51.992;9.228;2022-08-19T07:16:17;100003.50;;;22.22;88.03
21504;BME280;10913;51.992;9.228;2022-08-19T07:18:48;100006.63;;;22.30;87.23
21504;BME280;10913;51.992;9.228;2022-08-19T07:21:26;100010.03;;;22.48;86.80
21504;BME280;10913;51.992;9.228;2022-08-19T07:23:56;100014.31;;;22.66;86.38
21504;BME280;10913;51.992;9.228;2022-08-19T07:26:26;100017.13;;;22.79;85.19
21504;BME280;10913;51.992;9.228;2022-08-19T07:28:53;100032.94;;;22.99;84.50
21504;BME280;10913;51.992;9.228;2022-08-19T07:31:21;100044.50;;;23.30;83.49
21504;BME280;10913;51.992;9.228;2022-08-19T07:33:49;100042.22;;;23.93;81.16
21504;BME280;10913;51.992;9.228;2022-08-19T07:36:17;100041.53;;;25.34;76.98
21504;BME280;10913;51.992;9.228;2022-08-19T07:38:45;100033.94;;;27.28;71.53
21504;BME280;10913;51.992;9.228;2022-08-19T07:41:14;100032.03;;;28.92;67.10
21504;BME280;10913;51.992;9.228;2022-08-19T07:43:40;100028.56;;;29.71;64.24
21504;BME280;10913;51.992;9.228;2022-08-19T07:46:09;100029.72;;;29.78;63.60
21504;BME280;10913;51.992;9.228;2022-08-19T07:48:35;100035.19;;;29.18;64.30
21504;BME280;10913;51.992;9.228;2022-08-19T07:51:04;100038.81;;;28.44;65.57
21504;BME280;10913;51.992;9.228;2022-08-19T07:53:31;100038.06;;;27.99;66.88
21504;BME280;10913;51.992;9.228;2022-08-19T07:56:00;100049.22;;;27.96;67.36
21504;BME280;10913;51.992;9.228;2022-08-19T07:58:30;100045.34;;;28.10;67.12
21504;BME280;10913;51.992;9.228;2022-08-19T08:00:57;100052.78;;;27.97;67.76
21504;BME280;10913;51.992;9.228;2022-08-19T08:03:23;100064.53;;;27.86;67.98
21504;BME280;10913;51.992;9.228;2022-08-19T08:06:08;100074.56;;;27.74;67.46
21504;BME280;10913;51.992;9.228;2022-08-19T08:08:52;100073.91;;;27.82;67.54
21504;BME280;10913;51.992;9.228;2022-08-19T08:11:46;100066.72;;;28.46;66.44
21504;BME280;10913;51.992;9.228;2022-08-19T08:14:18;100069.66;;;29.38;64.38
21504;BME280;10913;51.992;9.228;2022-08-19T08:16:44;100057.09;;;30.27;62.66
21504;BME280;10913;51.992;9.228;2022-08-19T08:19:11;100064.81;;;31.08;60.92
21504;BME280;10913;51.992;9.228;2022-08-19T08:21:40;100061.50;;;31.71;59.41
21504;BME280;10913;51.992;9.228;2022-08-19T08:24:06;100065.09;;;32.16;58.64
21504;BME280;10913;51.992;9.228;2022-08-19T08:26:31;100063.97;;;32.55;57.16
21504;BME280;10913;51.992;9.228;2022-08-19T08:28:56;100067.56;;;32.91;56.09
21504;BME280;10913;51.992;9.228;2022-08-19T08:31:22;100059.31;;;33.08;55.52
21504;BME280;10913;51.992;9.228;2022-08-19T08:33:48;100056.28;;;33.19;55.58
21504;BME280;10913;51.992;9.228;2022-08-19T08:36:14;100067.72;;;33.33;55.52
21504;BME280;10913;51.992;9.228;2022-08-19T08:38:41;100070.47;;;33.41;55.11
21504;BME280;10913;51.992;9.228;2022-08-19T08:44:06;100075.31;;;32.95;55.15
21504;BME280;10913;51.992;9.228;2022-08-19T08:46:48;100069.91;;;32.68;55.54
21504;BME280;10913;51.992;9.228;2022-08-19T08:52:05;100068.66;;;32.27;56.45
21504;BME280;10913;51.992;9.228;2022-08-19T08:54:39;100073.47;;;32.15;56.90
21504;BME280;10913;51.992;9.228;2022-08-19T08:57:11;100064.44;;;32.05;57.07
21504;BME280;10913;51.992;9.228;2022-08-19T08:59:40;100074.38;;;32.06;56.82
21504;BME280;10913;51.992;9.228;2022-08-19T09:02:07;100071.03;;;31.84;56.60
21504;BME280;10913;51.992;9.228;2022-08-19T09:04:34;100076.00;;;31.62;56.79
21504;BME280;10913;51.992;9.228;2022-08-19T09:07:24;100066.09;;;31.04;56.71
21504;BME280;10913;51.992;9.228;2022-08-19T09:09:52;100067.16;;;30.74;57.45
21504;BME280;10913;51.992;9.228;2022-08-19T09:12:30;100065.00;;;30.68;58.38
21504;BME280;10913;51.992;9.228;2022-08-19T09:15:00;100070.91;;;30.73;58.44
21504;BME280;10913;51.992;9.228;2022-08-19T09:17:29;100073.03;;;30.79;58.81
21504;BME280;10913;51.992;9.228;2022-08-19T09:22:34;100057.81;;;30.58;59.01
21504;BME280;10913;51.992;9.228;2022-08-19T09:25:00;100050.66;;;30.76;59.23
21504;BME280;10913;51.992;9.228;2022-08-19T09:27:27;100055.38;;;30.93;59.21
21504;BME280;10913;51.992;9.228;2022-08-19T09:29:53;100053.03;;;30.98;58.90
21504;BME280;10913;51.992;9.228;2022-08-19T09:32:20;100055.78;;;30.98;58.23
21504;BME280;10913;51.992;9.228;2022-08-19T09:34:46;100060.53;;;30.87;57.98
21504;BME280;10913;51.992;9.228;2022-08-19T09:37:12;100073.50;;;30.75;58.30
21504;BME280;10913;51.992;9.228;2022-08-19T09:39:39;100063.44;;;30.66;58.23
21504;BME280;10913;51.992;9.228;2022-08-19T09:42:06;100065.13;;;30.47;58.31
21504;BME280;10913;51.992;9.228;2022-08-19T09:44:37;100069.41;;;30.40;58.45
21504;BME280;10913;51.992;9.228;2022-08-19T09:47:03;100073.72;;;30.24;58.38
21504;BME280;10913;51.992;9.228;2022-08-19T09:49:28;100070.72;;;30.17;59.31
21504;BME280;10913;51.992;9.228;2022-08-19T09:51:54;100070.00;;;30.25;60.00
21504;BME280;10913;51.992;9.228;2022-08-19T09:54:21;100071.44;;;30.29;59.71
21504;BME280;10913;51.992;9.228;2022-08-19T09:56:47;100077.84;;;30.18;59.27
21504;BME280;10913;51.992;9.228;2022-08-19T09:59:12;100072.50;;;29.97;59.33
21504;BME280;10913;51.992;9.228;2022-08-19T10:01:38;100069.03;;;29.86;59.69
21504;BME280;10913;51.992;9.228;2022-08-19T10:04:04;100062.84;;;29.74;59.93
21504;BME280;10913;51.992;9.228;2022-08-19T10:06:34;100065.50;;;29.64;60.75
21504;BME280;10913;51.992;9.228;2022-08-19T10:09:01;100069.66;;;29.38;61.14
21504;BME280;10913;51.992;9.228;2022-08-19T10:11:27;100069.25;;;29.12;61.15
21504;BME280;10913;51.992;9.228;2022-08-19T10:13:54;100061.38;;;29.19;61.76
21504;BME280;10913;51.992;9.228;2022-08-19T10:16:22;100063.38;;;29.37;61.82
21504;BME280;10913;51.992;9.228;2022-08-19T10:18:49;100053.72;;;29.54;61.80
21504;BME280;10913;51.992;9.228;2022-08-19T10:21:18;100053.16;;;29.60;61.00
21504;BME280;10913;51.992;9.228;2022-08-19T10:23:46;100041.72;;;29.66;61.85
21504;BME280;10913;51.992;9.228;2022-08-19T10:26:22;100047.78;;;29.79;61.67
21504;BME280;10913;51.992;9.228;2022-08-19T10:28:49;100040.78;;;29.87;60.89
21504;BME280;10913;51.992;9.228;2022-08-19T10:31:20;100041.06;;;29.83;61.18
21504;BME280;10913;51.992;9.228;2022-08-19T10:33:50;100028.88;;;29.88;61.15
21504;BME280;10913;51.992;9.228;2022-08-19T10:36:22;100026.28;;;29.86;60.85
21504;BME280;10913;51.992;9.228;2022-08-19T10:38:49;100022.44;;;29.89;60.82
21504;BME280;10913;51.992;9.228;2022-08-19T10:41:20;100025.75;;;29.92;60.42
21504;BME280;10913;51.992;9.228;2022-08-19T10:43:50;100016.56;;;29.93;60.05
21504;BME280;10913;51.992;9.228;2022-08-19T10:46:18;100009.56;;;30.00;60.03
21504;BME280;10913;51.992;9.228;2022-08-19T10:48:44;100002.94;;;29.93;59.13
21504;BME280;10913;51.992;9.228;2022-08-19T10:51:10;100006.25;;;29.97;59.40
21504;BME280;10913;51.992;9.228;2022-08-19T10:53:55;100004.94;;;29.91;60.20
21504;BME280;10913;51.992;9.228;2022-08-19T10:56:21;99990.19;;;29.94;59.82
21504;BME280;10913;51.992;9.228;2022-08-19T10:59:05;100000.91;;;29.86;60.05
21504;BME280;10913;51.992;9.228;2022-08-19T11:01:32;99995.47;;;29.76;59.94
21504;BME280;10913;51.992;9.228;2022-08-19T11:04:03;99999.59;;;29.70;60.24
21504;BME280;10913;51.992;9.228;2022-08-19T11:06:31;99992.53;;;29.58;60.05
21504;BME280;10913;51.992;9.228;2022-08-19T11:08:56;99994.69;;;29.55;60.09
21504;BME280;10913;51.992;9.228;2022-08-19T11:11:22;99990.38;;;29.52;60.26
21504;BME280;10913;51.992;9.228;2022-08-19T11:13:48;99982.50;;;29.59;59.28
21504;BME280;10913;51.992;9.228;2022-08-19T11:16:20;99986.38;;;29.56;59.49
21504;BME280;10913;51.992;9.228;2022-08-19T11:18:52;99988.25;;;29.65;59.20
21504;BME280;10913;51.992;9.228;2022-08-19T11:21:21;99985.53;;;29.65;58.81
21504;BME280;10913;51.992;9.228;2022-08-19T11:23:49;99971.09;;;29.74;58.01
21504;BME280;10913;51.992;9.228;2022-08-19T11:26:16;99977.09;;;29.78;57.93
21504;BME280;10913;51.992;9.228;2022-08-19T11:28:42;99972.66;;;29.77;57.62
21504;BME280;10913;51.992;9.228;2022-08-19T11:31:19;99972.38;;;29.70;58.13
21504;BME280;10913;51.992;9.228;2022-08-19T11:33:45;99970.63;;;29.79;57.74
21504;BME280;10913;51.992;9.228;2022-08-19T11:36:11;99962.34;;;29.80;57.59
21504;BME280;10913;51.992;9.228;2022-08-19T11:38:37;99965.78;;;29.82;58.25
21504;BME280;10913;51.992;9.228;2022-08-19T11:41:05;99974.09;;;29.81;57.97
21504;BME280;10913;51.992;9.228;2022-08-19T11:43:32;99970.94;;;29.76;58.01
21504;BME280;10913;51.992;9.228;2022-08-19T11:45:57;99976.09;;;29.69;58.61
21504;BME280;10913;51.992;9.228;2022-08-19T11:48:24;99981.53;;;29.69;57.77
21504;BME280;10913;51.992;9.228;2022-08-19T11:50:51;99971.78;;;29.67;58.46
21504;BME280;10913;51.992;9.228;2022-08-19T11:53:18;99974.06;;;29.62;58.35
21504;BME280;10913;51.992;9.228;2022-08-19T11:55:48;99975.78;;;29.63;58.58
21504;BME280;10913;51.992;9.228;2022-08-19T11:58:15;99965.75;;;29.54;57.59
21504;BME280;10913;51.992;9.228;2022-08-19T12:00:42;99975.13;;;29.40;57.44
21504;BME280;10913;51.992;9.228;2022-08-19T12:03:10;99959.13;;;29.46;57.37
21504;BME280;10913;51.992;9.228;2022-08-19T12:05:37;99954.53;;;29.47;57.30
21504;BME280;10913;51.992;9.228;2022-08-19T12:08:03;99955.72;;;29.54;57.57
21504;BME280;10913;51.992;9.228;2022-08-19T12:10:29;99957.97;;;29.49;58.06
21504;BME280;10913;51.992;9.228;2022-08-19T12:12:54;99956.84;;;29.52;57.47
21504;BME280;10913;51.992;9.228;2022-08-19T12:15:20;99952.34;;;29.41;56.86
21504;BME280;10913;51.992;9.228;2022-08-19T12:17:45;99953.31;;;29.30;56.92
21504;BME280;10913;51.992;9.228;2022-08-19T12:20:12;99951.59;;;29.29;57.33
21504;BME280;10913;51.992;9.228;2022-08-19T12:22:39;99945.81;;;29.23;57.78
21504;BME280;10913;51.992;9.228;2022-08-19T12:25:07;99937.38;;;29.16;57.59
21504;BME280;10913;51.992;9.228;2022-08-19T12:27:33;99933.78;;;29.16;57.11
21504;BME280;10913;51.992;9.228;2022-08-19T12:30:01;99943.50;;;29.08;57.67
21504;BME280;10913;51.992;9.228;2022-08-19T12:32:27;99932.53;;;28.89;57.38
21504;BME280;10913;51.992;9.228;2022-08-19T12:34:53;99933.38;;;28.90;56.41
21504;BME280;10913;51.992;9.228;2022-08-19T12:37:19;99931.94;;;28.86;57.11
21504;BME280;10913;51.992;9.228;2022-08-19T12:39:44;99941.47;;;28.80;57.65
21504;BME280;10913;51.992;9.228;2022-08-19T12:42:12;99949.91;;;28.77;57.17
21504;BME280;10913;51.992;9.228;2022-08-19T12:44:39;99946.16;;;28.78;57.02
21504;BME280;10913;51.992;9.228;2022-08-19T12:47:06;99946.66;;;28.83;57.66
21504;BME280;10913;51.992;9.228;2022-08-19T12:49:32;99952.22;;;28.82;57.28
21504;BME280;10913;51.992;9.228;2022-08-19T12:52:01;99948.84;;;28.89;57.52
21504;BME280;10913;51.992;9.228;2022-08-19T12:54:27;99937.13;;;28.98;57.55
21504;BME280;10913;51.992;9.228;2022-08-19T12:56:56;99932.28;;;29.02;57.72
21504;BME280;10913;51.992;9.228;2022-08-19T12:59:22;99935.72;;;28.94;57.63
21504;BME280;10913;51.992;9.228;2022-08-19T13:01:47;99920.28;;;29.04;57.19
21504;BME280;10913;51.992;9.228;2022-08-19T13:04:13;99924.91;;;29.13;57.30
21504;BME280;10913;51.992;9.228;2022-08-19T13:06:38;99924.63;;;29.17;56.97
21504;BME280;10913;51.992;9.228;2022-08-19T13:09:05;99927.16;;;29.08;56.43